Time;durP1;ratioP1;P1;durP2;ratioP2;P2;SDS_P1;SDS_P2;PMS_P1;PMS_P2;Temp;Humidity;BMP_temperature;BMP_pressure;BME280_temperature;BME280_humidity;BME280_pressure;Samples;Min_cycle;Max_cycle;Signal;HPM_P1;HPM_P2
2021/11/12 00:15:30;;;;;;;;;;;7.70;71.00;;;;;;20992121;27;76885;-82
2021/11/12 00:25:32;;;;;;;;;;;7.60;70.90;;;;;;20992782;27;78229;-84
2021/11/12 00:45:50;;;;;;;;;;;7.40;71.10;;;;;;20994314;27;76079;-82
2021/11/12 00:56:08;;;;;;;;;;;7.30;71.30;;;;;;20988681;27;75911;-86
2021/11/12 01:06:10;;;;;;;;;;;7.20;71.30;;;;;;20975711;27;76957;-86
2021/11/12 01:16:12;;;;;;;;;;;7.00;71.30;;;;;;20991590;27;75417;-85
2021/11/12 01:26:14;;;;;;;;;;;6.90;71.70;;;;;;21000423;27;77019;-85
2021/11/12 02:07:32;;;;;;;;;;;6.80;72.20;;;;;;21003224;27;76576;-84
2021/11/12 02:17:37;;;;;;;;;;;6.80;72.50;;;;;;20983865;27;75168;-86
2021/11/12 02:37:45;;;;;;;;;;;6.80;72.70;;;;;;21025048;27;75644;-85
2021/11/12 02:47:52;;;;;;;;;;;6.70;73.00;;;;;;20984854;27;76084;-90
2021/11/12 02:58:00;;;;;;;;;;;6.80;73.00;;;;;;20984672;27;76754;-86
2021/11/12 03:08:04;;;;;;;;;;;6.70;73.00;;;;;;20977768;27;74860;-88
2021/11/12 03:18:20;;;;;;;;;;;6.70;73.10;;;;;;20997148;27;77948;-88
2021/11/12 03:49:56;;;;;;;;;;;6.60;73.60;;;;;;20997406;27;75925;-84
2021/11/12 04:40:42;;;;;;;;;;;6.40;73.20;;;;;;20996178;27;75991;-83
2021/11/12 06:04:45;;;;;;;;;;;6.40;74.00;;;;;;20925815;27;75361;-84
2021/11/12 06:15:16;;;;;;;;;;;6.30;74.10;;;;;;20967347;27;76119;-76
2021/11/12 06:25:20;;;;;;;;;;;6.20;74.00;;;;;;20964241;27;75796;-75
2021/11/12 06:35:22;;;;;;;;;;;6.20;74.20;;;;;;20988145;27;77120;-73
2021/11/12 06:55:30;;;;;;;;;;;6.20;74.20;;;;;;20986787;27;76009;-73
2021/11/12 07:05:43;;;;;;;;;;;6.20;74.20;;;;;;20969556;27;75766;-74
2021/11/12 07:15:47;;;;;;;;;;;6.20;74.10;;;;;;20961235;27;76086;-57
2021/11/12 07:25:49;;;;;;;;;;;6.20;74.20;;;;;;20973965;27;75705;-58
2021/11/12 07:36:01;;;;;;;;;;;6.40;74.00;;;;;;20978864;27;75729;-59
2021/11/12 07:46:22;;;;;;;;;;;6.50;73.70;;;;;;20979527;27;76373;-59
2021/11/12 07:56:36;;;;;;;;;;;6.90;73.30;;;;;;20973366;27;76965;-58
2021/11/12 08:06:41;;;;;;;;;;;7.40;72.20;;;;;;20975813;27;75966;-58
2021/11/12 08:47:46;;;;;;;;;;;8.90;68.20;;;;;;20910911;27;76755;-58
2021/11/12 08:57:52;;;;;;;;;;;10.10;65.90;;;;;;20904952;27;76285;-59
2021/11/12 09:08:01;;;;;;;;;;;10.20;65.60;;;;;;20903862;27;76089;-59
2021/11/12 09:18:04;;;;;;;;;;;11.90;61.30;;;;;;20907727;27;76264;-64
2021/11/12 09:28:09;;;;;;;;;;;11.60;62.50;;;;;;20888217;27;76025;-64
2021/11/12 09:38:13;;;;;;;;;;;12.30;61.90;;;;;;20879632;28;76090;-62
2021/11/12 09:48:15;;;;;;;;;;;12.90;60.40;;;;;;20867011;28;75997;-63
2021/11/12 09:58:19;;;;;;;;;;;12.90;61.00;;;;;;20867173;28;76969;-63
2021/11/12 10:08:21;;;;;;;;;;;13.50;60.30;;;;;;20883167;28;76441;-63
2021/11/12 10:18:22;;;;;;;;;;;20.00;50.60;;;;;;20876259;28;76537;-64
2021/11/12 10:28:24;;;;;;;;;;;;;;;;;;20883585;27;76860;-63
2021/11/12 10:38:36;;;;;;;;;;;32.90;26.10;;;;;;20899405;27;75982;-63
2021/11/12 10:48:39;;;;;;;;;;;33.50;25.50;;;;;;20899880;27;76752;-64
2021/11/12 10:58:57;;;;;;;;;;;35.30;23.70;;;;;;20900986;27;76465;-64
2021/11/12 11:09:01;;;;;;;;;;;36.30;23.40;;;;;;20896707;27;75914;-64
2021/11/12 11:19:02;;;;;;;;;;;37.50;22.40;;;;;;20885118;27;75744;-64
2021/11/12 11:29:06;;;;;;;;;;;39.20;21.10;;;;;;20903543;27;75980;-63
2021/11/12 11:39:08;;;;;;;;;;;38.80;21.40;;;;;;20910823;27;76349;-64
2021/11/12 11:49:14;;;;;;;;;;;36.80;24.00;;;;;;20914158;27;75580;-63
2021/11/12 11:59:25;;;;;;;;;;;37.80;22.60;;;;;;20943476;27;76885;-66
2021/11/12 12:09:47;;;;;;;;;;;39.50;21.30;;;;;;20900578;27;76614;-63
2021/11/12 13:31:57;;;;;;;;;;;29.30;31.00;;;;;;20911350;27;75522;-64
2021/11/12 13:42:03;;;;;;;;;;;28.40;30.70;;;;;;20905812;27;76911;-66
2021/11/12 13:52:05;;;;;;;;;;;31.40;27.40;;;;;;20910154;27;76373;-70
2021/11/12 14:02:08;;;;;;;;;;;31.60;26.70;;;;;;20942164;27;75953;-67
2021/11/12 14:12:12;;;;;;;;;;;35.50;23.40;;;;;;20946024;27;76837;-64
2021/11/12 14:22:29;;;;;;;;;;;35.60;23.30;;;;;;20912524;27;75926;-68
2021/11/12 14:43:06;;;;;;;;;;;25.80;33.50;;;;;;20914994;28;75805;-65
2021/11/12 14:53:38;;;;;;;;;;;23.60;33.60;;;;;;20911945;28;75442;-66
2021/11/12 15:03:36;;;;;;;;;;;22.40;35.50;;;;;;20907039;27;75689;-64
2021/11/12 15:13:40;;;;;;;;;;;21.20;37.40;;;;;;20899219;28;76883;-64
2021/11/12 15:23:57;;;;;;;;;;;20.50;38.50;;;;;;20902488;28;76908;-67
2021/11/12 15:34:03;;;;;;;;;;;20.00;39.00;;;;;;20981309;27;76984;-64
2021/11/12 15:44:19;;;;;;;;;;;19.60;39.60;;;;;;20994087;27;76858;-65
2021/11/12 16:35:12;;;;;;;;;;;17.70;42.50;;;;;;21017970;27;76385;-65
2021/11/12 16:45:39;;;;;;;;;;;17.40;43.20;;;;;;20994064;27;76802;-66
2021/11/12 17:47:15;;;;;;;;;;;15.30;51.60;;;;;;21006235;27;76579;-67
2021/11/12 21:47:17;;;;;;;;;;;11.50;67.50;;;;;;20987999;27;74646;-71
2021/11/12 21:57:19;;;;;;;;;;;11.30;66.70;;;;;;20971301;27;76403;-71
2021/11/12 22:07:22;;;;;;;;;;;11.00;66.80;;;;;;20988999;27;75693;-72
2021/11/12 22:17:24;;;;;;;;;;;10.90;66.80;;;;;;20990663;27;76254;-72
2021/11/12 22:27:29;;;;;;;;;;;10.70;67.30;;;;;;20983981;27;74749;-72
2021/11/12 22:37:32;;;;;;;;;;;10.60;67.60;;;;;;20884439;28;75859;-73
2021/11/12 22:47:35;;;;;;;;;;;10.50;67.60;;;;;;20997178;27;76654;-74
2021/11/12 22:57:36;;;;;;;;;;;10.40;67.80;;;;;;20984926;27;76085;-73
2021/11/12 23:07:39;;;;;;;;;;;10.20;68.30;;;;;;21000939;27;76801;-73
2021/11/12 23:17:41;;;;;;;;;;;10.10;68.80;;;;;;20982636;27;76665;-73
2021/11/12 23:27:44;;;;;;;;;;;10.00;68.90;;;;;;20976154;27;76457;-74
2021/11/12 23:37:45;;;;;;;;;;;9.90;69.10;;;;;;20896928;28;77016;-72
2021/11/12 23:47:48;;;;;;;;;;;9.70;69.30;;;;;;20914963;28;76693;-73
2021/11/12 23:57:50;;;;;;;;;;;9.60;69.50;;;;;;20894364;27;77084;-72
